Terminal Aerodrome Forecast
Issued by NWS

Home | Current Version | Previous Version | Text Only | Print | Product List | Glossary On
Versions: 1 2 3 4 5 6 7 8 9 10 11 12 13 14 15 16 17 18 19 20 21
000
FTUS43 KDVN 170755 AAA
TAFBRL
TAF AMD
KBRL 170755Z 1708/1806 15010KT P6SM BKN008
     FM171100 15012G19KT P6SM OVC012
     FM171500 15014G21KT 6SM BR VCSH OVC020
     FM172100 17010KT 3SM -RADZ OVC009
     FM180300 18006KT 2SM -RADZ BR OVC005=

USA.gov is the U.S. government's official web portal to all federal, state and local government web resources and services.